KOLUKBBW

Guest
Details From KOLU - COLUMBUS MUNI
To KBBW - BROKEN BOW MUNI
Flight Number -
Tags generated
Created
Modified
Stats Distance 104 nm / 192 km
Max Altitude 4,200 ft / 1,280 m
Waypoints 3
Social Downloads 0
Likes 0
Share VATSIM

Download

Looking for another format? Having issues loading an existing format? Contact us
Advertisement - Login to hide

Notes

Basic altitude profile: - Ascent Rate: 2500ft/min - Ascent Speed: 250kts - Cruise Altitude: 35000ft - Cruise Speed: 420kts - Descent Rate: 1500ft/min - Descent Speed: 250kts Options: - Use NATs: yes - Use PACOTS: yes - Use low airways: yes - Use high airways: yes

Route

KOLU CISTA KBBW

ID Type Via Altitude Latitude Longitude Leg Dist Tot Dist Heading (true) Name
O KOLU APT - 0 ft / 0 m 41.44859˚ -97.34004˚ - 0 nm - COLUMBUS MUNI
CISTA FIX - 4,200 ft / 1,280 m 41.43149˚ -97.60560˚ 12 nm 12 nm 265° / 265° -
O KBBW APT - 0 ft / 0 m 41.43648˚ -99.64222˚ 91 nm 103 nm 271° / 270° BROKEN BOW MUNI

Altitude Profile

Advertisement - Login to hide

KOLU

Details ICAO KOLU
Name COLUMBUS MUNI
Region United States
Timezone America/Chicago (UTC-6.0)
Stats Elevation 1,444 ft / 440 m (AMSL)
Location 41.448592° -97.340040°
Runways 2
Magnetic Variation 3.555° E

METAR

KOLU 151756Z AUTO 23012KT 10SM CLR 04/M03 A2996 RMK AO2 WSHFT 1648 RAB21E31 SLP159 P0000 60000 T00391033 10039 21033 58021

Decode

TAF

Not found

Departure Runways

ID Width Length Bearing (true) Bearing (mag) Surface Threshold Offset Overrun Length
02 151 ft / 46 m 4,040 ft / 1,231 m 29.70° 26.14° Grass 0 ft / 0 m 0 ft / 0 m
14 98 ft / 30 m 6,808 ft / 2,075 m 149.90° 146.34° Concrete 0 ft / 0 m 0 ft / 0 m
20 151 ft / 46 m 4,040 ft / 1,231 m 209.70° 206.14° Grass 0 ft / 0 m 0 ft / 0 m
32 98 ft / 30 m 6,808 ft / 2,075 m 329.90° 326.34° Concrete 951 ft / 290 m 0 ft / 0 m

KBBW

Details ICAO KBBW
Name BROKEN BOW MUNI
Region United States
Timezone America/Chicago (UTC-6.0)
Stats Elevation 2,547 ft / 776 m (AMSL)
Location 41.436478° -99.642223°
Runways 1
Magnetic Variation 5.136° E

METAR

KBBW 151753Z AUTO 25011KT 10SM CLR 04/M02 A2992 RMK AO2 SLP150 T00391022 10039 21072 58012

Decode

TAF

Not found

Destination Runways

ID Width Length Bearing (true) Bearing (mag) Surface Threshold Offset Overrun Length
14 75 ft / 23 m 4,203 ft / 1,281 m 148.60° 143.46° Concrete 0 ft / 0 m 0 ft / 0 m
32 75 ft / 23 m 4,203 ft / 1,281 m 328.60° 323.46° Concrete 0 ft / 0 m 0 ft / 0 m